• Join FlightAware (Why Join?)
  • Login
  • US Flag 
10:35PM EDT


 

Airport Tracker/Info


-or-


 

Live Flight TrackerFlight Track Log ✈ C-FTOH ✈ 09-Apr-2013 ✈ CYQB - MUCC / CCC

Flight Track Log - Related Links

Times and Time Zones

All times are in EDT time to prevent confusion due to time zone crossing. See the C-FTOH flight status page for this flight to view local times or setup timezone preferences in your user account.

Time Position Orientation Groundspeed Altitude Reporting Facility
EDT Latitude Longitude Course Direction KTS MPH feet Rate Location/Type
09:58AM 46.8010 -71.3800 43° Northeast 171 197 600  Level FlightAware
09:59AM 46.8110 -71.3660 44° Northeast 149 171 1,900 2,040 Climbing FlightAware
09:59AM 46.8330 -71.3390 40° Northeast 199 229 2,500 1,080 Climbing FlightAware
09:59AM 46.8440 -71.3250 41° Northeast 219 252 2,800 1,920 Climbing FlightAware
10:00AM 46.8630 -71.3010 41° Northeast 231 266 3,800 2,820 Climbing FlightAware
10:00AM 46.8800 -71.2630 57° Northeast 225 259 5,400 3,240 Climbing FlightAware
10:01AM 46.8700 -71.2300 114° Southeast 222 255 6,800 2,820 Climbing FlightAware
10:01AM 46.8580 -71.2160 141° Southeast 233 268 7,300 1,440 Climbing FlightAware
10:01AM 46.8470 -71.2110 163° South 246 283 7,400 1,200 Climbing FlightAware
10:01AM 46.8250 -71.2170 191° South 265 305 7,900 1,860 Climbing FlightAware
10:02AM 46.7940 -71.2300 196° South 282 325 8,800 2,220 Climbing FlightAware
10:03AM 46.7350 -71.2520 194° South 303 349 10,500 1,620 Climbing FlightAware
10:03AM 46.6760 -71.2730 194° South 349 402 11,100 1,740 Climbing FlightAware
10:04AM 46.6040 -71.3000 194° South 359 413 13,000 2,820 Climbing FlightAware
10:05AM 46.5410 -71.3240 195° South 352 405 15,100 2,700 Climbing FlightAware
10:05AM 46.4770 -71.3480 194° South 360 414 16,600 2,100 Climbing FlightAware
10:06AM 46.4120 -71.3720 194° South 372 428 17,900 1,860 Climbing FlightAware
10:07AM 46.3360 -71.4000 194° South 384 442 19,300 1,740 Climbing FlightAware
10:07AM 46.2660 -71.4260 194° South 395 455 20,400 1,680 Climbing FlightAware
10:08AM 46.1840 -71.4510 192° South 410 472 21,700 1,680 Climbing FlightAware
10:09AM 46.1080 -71.4590 184° South 420 483 22,800 1,620 Climbing FlightAware
10:10AM 46.0210 -71.4670 184° South 426 490 24,000 1,620 Climbing FlightAware
10:10AM 45.9420 -71.4750 184° South 430 495 25,100 1,500 Climbing FlightAware
10:11AM 45.8620 -71.4830 184° South 434 499 26,000 1,260 Climbing FlightAware
10:12AM 45.7830 -71.4930 185° South 439 505 26,800 1,200 Climbing FlightAware
10:12AM 45.6970 -71.5350 199° South 438 504 27,700 1,200 Climbing FlightAware
10:13AM 45.6230 -71.5840 205° Southwest 440 506 28,500 1,500 Climbing FlightAware
10:14AM 45.5410 -71.6380 205° Southwest 432 497 29,900 1,680 Climbing FlightAware
10:14AM 45.4690 -71.6870 206° Southwest 428 493 30,900 1,320 Climbing FlightAware
10:15AM 45.3880 -71.7400 205° Southwest 428 493 31,800 1,080 Climbing FlightAware
10:16AM 45.3180 -71.7870 205° Southwest 427 491 32,500 1,080 Climbing FlightAware
10:17AM 45.2490 -71.8430 210° Southwest 423 487 33,300 1,020 Climbing FlightAware
10:17AM 45.1720 -71.9020 208° Southwest 429 494 34,000 480 Climbing FlightAware
10:18AM 45.0990 -71.9460 203° Southwest 431 496 34,000  Level FlightAware
10:19AM 45.0260 -71.9900 203° Southwest 430 495 34,000  Level FlightAware
10:19AM 44.9460 -72.0380 203° Southwest 427 491 34,000  Level FlightAware
10:20AM 44.8700 -72.0830 203° Southwest 425 489 34,000  Level FlightAware
10:21AM 44.7860 -72.1340 203° Southwest 431 496 34,000  Level FlightAware
10:21AM 44.7130 -72.1770 203° Southwest 433 498 34,000  Level FlightAware
10:22AM 44.6330 -72.2250 203° Southwest 432 497 34,000  Level FlightAware
10:23AM 44.5580 -72.2700 203° Southwest 431 496 34,000  Level FlightAware
10:24AM 44.4840 -72.3130 203° Southwest 432 497 34,000  Level FlightAware
10:24AM 44.4030 -72.3610 203° Southwest 434 499 34,000  Level FlightAware
10:25AM 44.3300 -72.4030 202° Southwest 435 501 34,000  Level FlightAware
10:26AM 44.2500 -72.4510 203° Southwest 436 502 34,000  Level FlightAware
10:26AM 44.1690 -72.4980 203° Southwest 437 503 34,000  Level FlightAware
10:27AM 44.0950 -72.5410 203° Southwest 439 505 34,000  Level FlightAware
10:28AM 44.0210 -72.5840 203° Southwest 441 507 34,000  Level FlightAware
10:28AM 43.9330 -72.6350 203° Southwest 441 507 34,000  Level FlightAware
10:29AM 43.8580 -72.6780 202° Southwest 441 507 34,000  Level FlightAware
10:30AM 43.7760 -72.7260 203° Southwest 437 503 34,000  Level FlightAware
10:31AM 43.7000 -72.7690 202° Southwest 438 504 34,000  Level FlightAware
10:31AM 43.6140 -72.8180 202° Southwest 439 505 34,000  Level FlightAware
10:32AM 43.5380 -72.8620 203° Southwest 440 506 34,000  Level FlightAware
10:33AM 43.4640 -72.9040 202° Southwest 441 507 34,000  Level FlightAware
10:33AM 43.3830 -72.9500 202° Southwest 436 502 34,000  Level FlightAware
10:34AM 43.3070 -72.9930 202° Southwest 435 501 34,000  Level FlightAware
10:35AM 43.2210 -73.0420 203° Southwest 438 504 34,000  Level FlightAware
10:36AM 43.1600 -73.0760 202° Southwest 441 507 34,000  Level FlightAware
10:37AM 43.0530 -73.1360 202° Southwest 443 510 34,000  Level FlightAware
10:37AM 42.9500 -73.1930 202° Southwest 444 511 34,000  Level FlightAware
10:38AM 42.8860 -73.2290 202° Southwest 444 511 34,000  Level FlightAware
10:39AM 42.7510 -73.3040 202° Southwest 444 511 34,000  Level FlightAware
10:40AM 42.6350 -73.3690 202° Southwest 446 513 34,000  Level FlightAware
10:41AM 42.5590 -73.4100 202° Southwest 450 518 34,000  Level FlightAware
10:41AM 42.4730 -73.4580 202° Southwest 455 524 34,000  Level FlightAware
10:42AM 42.4212 -73.4863 202° Southwest 457 526 34,000  Level FlightAware ADS-B
10:43AM 42.3220 -73.5400 202° Southwest 465 535 34,000  Level FlightAware
10:43AM 42.2200 -73.5960 202° Southwest 460 529 34,000  Level FlightAware
10:44AM 42.1410 -73.6390 202° Southwest 456 525 34,000  Level FlightAware
10:45AM 42.0660 -73.6790 202° Southwest 449 517 34,000  Level FlightAware
10:45AM 41.9900 -73.7210 202° Southwest 453 521 34,000  Level FlightAware
10:46AM 41.9668 -73.7336 202° Southwest 455 524 34,000  Level FlightAware ADS-B
10:46AM 41.9016 -73.7687 202° Southwest 456 525 34,000  Level FlightAware ADS-B
10:47AM 41.8357 -73.8038 202° Southwest 459 528 34,000  Level FlightAware ADS-B
10:47AM 41.7724 -73.8376 202° Southwest 460 529 34,000  Level FlightAware ADS-B
10:48AM 41.7038 -73.8744 202° Southwest 459 528 34,000  Level FlightAware ADS-B
10:48AM 41.6443 -73.9063 202° Southwest 456 525 34,000  Level FlightAware ADS-B
10:49AM 41.5844 -73.9384 202° Southwest 450 518 34,000  Level FlightAware ADS-B
10:49AM 41.5239 -73.9704 202° Southwest 447 514 34,000  Level FlightAware ADS-B
10:50AM 41.4665 -74.0010 202° Southwest 447 514 34,000  Level FlightAware ADS-B
10:50AM 41.4054 -74.0338 202° Southwest 454 522 34,000  Level FlightAware ADS-B
10:51AM 41.3448 -74.0655 201° Southwest 458 527 34,000  Level FlightAware ADS-B
10:51AM 41.3074 -74.0851 201° Southwest 458 527 34,000  Level FlightAware ADS-B
10:52AM 41.2773 -74.1010 202° Southwest 459 528 34,000  Level FlightAware ADS-B
10:52AM 41.2479 -74.1163 201° Southwest 461 531 34,000  Level FlightAware ADS-B
10:52AM 41.2066 -74.1381 202° Southwest 460 529 34,000  Level FlightAware ADS-B
10:53AM 41.1374 -74.1744 202° Southwest 458 527 34,000  Level FlightAware ADS-B
10:53AM 41.0754 -74.2072 202° Southwest 456 525 34,000  Level FlightAware ADS-B
10:54AM 41.0362 -74.2277 202° Southwest 455 524 34,000  Level FlightAware ADS-B
10:54AM 41.0174 -74.2374 201° Southwest 455 524 34,000  Level FlightAware ADS-B
10:54AM 40.9514 -74.2719 202° Southwest 456 525 34,000  Level FlightAware ADS-B
10:55AM 40.8901 -74.3040 202° Southwest 457 526 34,000  Level FlightAware ADS-B
10:55AM 40.8251 -74.3376 201° Southwest 460 529 34,000  Level FlightAware ADS-B
10:56AM 40.7633 -74.3698 202° Southwest 464 534 34,000  Level FlightAware ADS-B
10:56AM 40.7417 -74.3810 201° Southwest 465 535 34,000  Level FlightAware ADS-B
10:56AM 40.7016 -74.4018 201° Southwest 466 536 34,000  Level FlightAware ADS-B
10:57AM 40.6405 -74.4333 201° Southwest 466 536 34,000  Level FlightAware ADS-B
10:57AM 40.5752 -74.4667 201° Southwest 466 536 34,000  Level FlightAware ADS-B
10:58AM 40.4910 -74.5100 201° Southwest 467 537 34,000  Level FlightAware
10:58AM 40.4717 -74.5200 202° Southwest 467 537 34,000  Level FlightAware ADS-B
10:59AM 40.4111 -74.5510 201° Southwest 466 536 34,000  Level FlightAware ADS-B
10:59AM 40.3488 -74.5832 202° Southwest 465 535 34,000  Level FlightAware ADS-B
11:00AM 40.2875 -74.6147 201° Southwest 465 535 34,000  Level FlightAware ADS-B
11:00AM 40.2247 -74.6467 201° Southwest 469 540 34,000  Level FlightAware ADS-B
11:01AM 40.1626 -74.6782 201° Southwest 472 543 34,000  Level FlightAware ADS-B
11:01AM 40.1001 -74.7097 201° Southwest 472 543 34,000  Level FlightAware ADS-B
11:02AM 40.0386 -74.7407 201° Southwest 473 544 34,000  Level FlightAware ADS-B
11:02AM 39.9756 -74.7726 201° Southwest 473 544 34,000  Level FlightAware ADS-B
11:03AM 39.9128 -74.8048 201° Southwest 475 547 34,000  Level FlightAware ADS-B
11:03AM 39.8499 -74.8367 201° Southwest 477 549 34,000  Level FlightAware ADS-B
11:04AM 39.7774 -74.8731 201° Southwest 482 555 34,000  Level FlightAware ADS-B
11:04AM 39.7134 -74.9052 201° Southwest 484 557 34,000  Level FlightAware ADS-B
11:05AM 39.6505 -74.9365 201° Southwest 484 557 34,000  Level FlightAware ADS-B
11:06AM 39.5740 -74.9748 201° Southwest 485 558 34,000  Level FlightAware ADS-B
11:06AM 39.5102 -75.0067 201° Southwest 485 558 34,000  Level FlightAware ADS-B
11:07AM 39.4314 -75.0459 201° Southwest 487 560 34,000  Level FlightAware ADS-B
11:07AM 39.3655 -75.0785 201° Southwest 488 562 34,000  Level FlightAware ADS-B
11:08AM 39.2946 -75.1131 201° Southwest 489 563 34,000  Level FlightAware ADS-B
11:08AM 39.2260 -75.1422 198° South 493 567 34,000  Level FlightAware ADS-B
11:09AM 39.1492 -75.1749 198° South 492 566 34,000  Level FlightAware ADS-B
11:10AM 39.0387 -75.2216 198° South 491 565 34,000  Level FlightAware ADS-B
11:10AM 38.9734 -75.2492 198° South 492 566 34,000  Level FlightAware ADS-B
11:11AM 38.8780 -75.2891 198° South 492 566 34,000  Level FlightAware ADS-B
11:12AM 38.8089 -75.3180 198° South 490 564 34,000  Level FlightAware ADS-B
11:12AM 38.7389 -75.3473 198° South 486 559 34,000  Level FlightAware ADS-B
11:13AM 38.6413 -75.3879 198° South 485 558 34,000  Level FlightAware ADS-B
11:13AM 38.5737 -75.4160 198° South 483 556 34,000  Level FlightAware ADS-B
11:14AM 38.5100 -75.4423 198° South 481 554 34,000  Level FlightAware ADS-B
11:14AM 38.4366 -75.4726 198° South 479 551 34,000  Level FlightAware ADS-B
11:15AM 38.3139 -75.5275 199° South 475 547 34,000  Level FlightAware ADS-B
11:16AM 38.2526 -75.5606 203° Southwest 460 529 34,000  Level FlightAware ADS-B
11:17AM 38.1899 -75.5945 203° Southwest 458 527 34,000  Level FlightAware ADS-B
11:17AM 38.1043 -75.6407 203° Southwest 456 525 34,000  Level FlightAware ADS-B
11:18AM 38.0365 -75.6773 203° Southwest 453 521 34,000  Level FlightAware ADS-B
11:18AM 37.9756 -75.7101 203° Southwest 452 520 34,000  Level FlightAware ADS-B
11:19AM 37.9094 -75.7455 203° Southwest 449 517 34,000  Level FlightAware ADS-B
11:20AM 37.8310 -75.7875 203° Southwest 447 514 34,000  Level FlightAware ADS-B
11:20AM 37.7810 -75.8140 203° Southwest 447 514 34,000  Level FlightAware
11:21AM 37.7000 -75.8580 203° Southwest 447 514 34,000  Level FlightAware
11:22AM 37.6103 -75.9051 203° Southwest 442 509 34,000  Level FlightAware ADS-B
11:22AM 37.5529 -75.9356 203° Southwest 442 509 34,000  Level FlightAware ADS-B
11:23AM 37.4953 -75.9660 203° Southwest 441 507 34,000  Level FlightAware ADS-B
11:23AM 37.4344 -75.9982 203° Southwest 441 507 34,000  Level FlightAware ADS-B
11:24AM 37.3694 -76.0323 203° Southwest 442 509 34,000  Level FlightAware ADS-B
11:24AM 37.3092 -76.0641 203° Southwest 441 507 34,000  Level FlightAware ADS-B
11:25AM 37.2510 -76.0946 203° Southwest 441 507 34,000  Level FlightAware ADS-B
11:25AM 37.1920 -76.1258 203° Southwest 441 507 34,000  Level FlightAware ADS-B
11:26AM 37.1337 -76.1564 203° Southwest 441 507 34,000  Level FlightAware ADS-B
11:27AM 37.0540 -76.1980 203° Southwest 442 509 34,000  Level FlightAware
11:27AM 37.0286 -76.2110 202° Southwest 443 510 34,000  Level FlightAware ADS-B
11:27AM 36.9840 -76.2340 202° Southwest 443 510 34,000  Level FlightAware
11:28AM 36.8930 -76.2820 203° Southwest 447 514 34,000  Level FlightAware
11:29AM 36.7900 -76.3360 203° Southwest 448 516 34,000  Level FlightAware
11:30AM 36.7250 -76.3710 203° Southwest 448 516 34,000  Level FlightAware
11:30AM 36.6600 -76.4050 203° Southwest 448 516 34,000  Level FlightAware
11:31AM 36.5950 -76.4390 203° Southwest 448 516 34,000  Level FlightAware
11:32AM 36.5300 -76.4730 203° Southwest 448 516 34,000  Level FlightAware
11:32AM 36.4490 -76.5160 203° Southwest 448 516 34,000  Level FlightAware
11:33AM 36.3840 -76.5510 203° Southwest 448 516 34,000  Level FlightAware
11:34AM 36.3190 -76.5850 203° Southwest 448 516 34,000  Level FlightAware
11:34AM 36.2540 -76.6190 203° Southwest 448 516 34,000  Level FlightAware
11:35AM 36.1900 -76.6530 203° Southwest 448 516 34,000  Level FlightAware
11:36AM 36.1090 -76.6960 203° Southwest 448 516 34,000  Level FlightAware
11:37AM 36.0440 -76.7300 203° Southwest 448 516 34,000  Level FlightAware
11:37AM 35.9790 -76.7640 203° Southwest 448 516 34,000  Level FlightAware
11:38AM 35.9140 -76.7980 203° Southwest 448 516 34,000  Level FlightAware
11:39AM 35.6208 -76.9208 203° Southwest 455 524 34,000  Level Washington Center
11:40AM 35.4914 -76.9314 184° South 450 518 34,000  Level Washington Center
11:41AM 35.3619 -76.9369 182° South 455 524 34,000  Level Washington Center
11:42AM 35.2325 -76.9475 184° South 462 532 34,000  Level Washington Center
11:43AM 35.1008 -76.9553 183° South 462 532 34,000  Level Washington Center
11:44AM 34.9756 -76.9633 183° South 462 532 34,000  Level Washington Center
11:45AM 34.8461 -76.9789 186° South 462 532 34,000  Level Washington Center
11:46AM 34.7164 -76.9994 187° South 462 532 34,000 -60 Level Washington Center
11:47AM 34.5889 -77.0225 188° South 462 532 33,900  Descending Washington Center
11:48AM 34.4656 -77.0456 189° South 462 532 34,000  Climbing Washington Center
11:49AM 34.3381 -77.0683 188° South 467 537 33,900  Descending Washington Center
11:50AM 34.2083 -77.0914 188° South 467 537 34,000  Climbing Washington Center
11:51AM 34.0786 -77.1139 188° South 467 537 33,900  Descending Washington Center
11:55AM 33.6431 -77.1925 189° South 464 534 34,000  Climbing Jacksonville Center
11:56AM 33.5167 -77.2131 188° South 469 540 33,900 -60 Descending Jacksonville Center
11:57AM 33.3906 -77.2383 190° South 469 540 33,900  Level Jacksonville Center
11:58AM 33.2683 -77.2586 188° South 457 526 34,000 60 Climbing Jacksonville Center
11:59AM 33.1397 -77.2742 186° South 452 520 34,100 600 Climbing Jacksonville Center
12:00PM 33.0086 -77.2825 183° South 464 534 35,200 900 Climbing Jacksonville Center
12:01PM 32.8797 -77.2956 185° South 476 548 35,900 360 Climbing Jacksonville Center
12:02PM 32.7506 -77.3033 183° South 476 548 36,000  Climbing Jacksonville Center
12:03PM 32.6217 -77.3139 184° South 470 541 36,000 -60 Level Jacksonville Center
12:04PM 32.4967 -77.3192 182° South 465 535 35,900  Descending Jacksonville Center
12:05PM 32.3678 -77.3294 184° South 465 535 36,000  Climbing Jacksonville Center
12:06PM 32.2389 -77.3397 184° South 460 529 35,900 -60 Descending Jacksonville Center
12:07PM 32.1142 -77.3497 184° South 460 529 35,900  Level Jacksonville Center
12:08PM 31.9853 -77.3600 184° South 460 529 35,900  Level Jacksonville Center
12:09PM 31.8581 -77.3653 182° South 460 529 36,000  Climbing Jacksonville Center
12:10PM 31.7331 -77.3728 183° South 460 529 35,900 -60 Descending Jacksonville Center
12:11PM 31.6044 -77.3875 186° South 460 529 35,900  Level Jacksonville Center
12:12PM 31.4794 -77.3950 183° South 455 524 36,000  Climbing Jacksonville Center
12:13PM 31.3528 -77.4097 186° South 460 529 36,000  Level Jacksonville Center
12:14PM 31.2256 -77.4100 180° South 460 529 36,000  Level Jacksonville Center
12:15PM 31.0989 -77.4247 186° South 460 529 36,000 -60 Level Jacksonville Center
12:16PM 30.9739 -77.4319 183° South 455 524 35,900  Descending Jacksonville Center
12:17PM 30.8475 -77.4514 188° South 460 529 36,000  Climbing Jacksonville Center
12:18PM 30.7242 -77.4464 178° South 454 522 36,000  Level Jacksonville Center
12:19PM 30.5972 -77.4536 183° South 459 528 36,000  Level Jacksonville Center
12:20PM 30.4700 -77.4608 183° South 459 528 36,000  Level Jacksonville Center
12:22PM 30.1956 -77.4992 187° South 464 534 36,000  Level Miami Center
12:23PM 30.0642 -77.4958 179° South 464 534 36,000  Level Miami Center
12:24PM 29.9619 -77.4953 180° South 464 534 36,000  Level Miami Center
12:25PM 29.8097 -77.4944 180° South 464 534 36,000 -60 Level Miami Center
12:26PM 29.6806 -77.4936 180° South 470 541 35,900 -60 Descending Miami Center
12:27PM 29.5469 -77.4906 179° South 472 543 35,900  Level Miami Center
12:28PM 29.4072 -77.4850 178° South 477 549 36,000  Climbing Miami Center
12:29PM 29.2842 -77.4867 181° South 472 543 35,900  Descending Miami Center
12:30PM 29.1550 -77.4883 181° South 472 543 36,000  Climbing Miami Center
12:31PM 29.0275 -77.4853 179° South 472 543 35,900  Descending Miami Center
12:32PM 28.9003 -77.4844 180° South 472 543 36,000  Climbing Miami Center
12:33PM 28.7708 -77.4836 180° South 465 535 36,000  Level Miami Center
12:34PM 28.6394 -77.4831 180° South 459 528 36,000  Level Miami Center
12:35PM 28.5122 -77.4822 180° South 464 534 36,000  Level Miami Center
12:36PM 28.3847 -77.4792 179° South 457 526 36,000 -60 Level Miami Center
12:37PM 28.2575 -77.4786 180° South 457 526 35,900  Descending Miami Center
12:38PM 28.1322 -77.4778 180° South 463 533 36,000  Climbing Miami Center
12:39PM 28.0006 -77.4772 180° South 463 533 35,900  Descending Miami Center
12:40PM 27.8858 -77.4742 179° South 458 527 36,000  Climbing Miami Center
12:41PM 27.7481 -77.4781 181° South 458 527 36,000  Level Miami Center
12:42PM 27.6311 -77.4753 179° South 458 527 36,000  Level Miami Center
12:43PM 27.5017 -77.4744 180° South 463 533 36,000  Level Miami Center
12:44PM 27.3722 -77.4597 174° South 463 533 36,000  Level Miami Center
12:45PM 27.2425 -77.4708 184° South 463 533 36,000  Level Miami Center
12:46PM 27.1111 -77.4678 179° South 463 533 36,000 180 Level Miami Center
12:47PM 26.9794 -77.4672 180° South 463 533 36,400 360 Climbing Miami Center
12:48PM 26.8500 -77.4642 179° South 468 539 36,800 300 Climbing Miami Center
12:49PM 26.7225 -77.4636 180° South 468 539 37,000 60 Climbing Miami Center
12:50PM 26.5931 -77.4581 178° South 468 539 37,000  Level Miami Center
12:51PM 26.4633 -77.4600 181° South 468 539 37,000  Level Miami Center
12:52PM 26.3339 -77.4544 178° South 468 539 37,000  Level Miami Center
12:53PM 26.2044 -77.4564 181° South 468 539 37,000  Level Miami Center
12:54PM 26.0747 -77.4556 180° South 468 539 37,000  Level Miami Center
12:55PM 25.9475 -77.4550 180° South 462 532 37,000  Level Miami Center
12:56PM 25.8178 -77.4544 180° South 462 532 37,000  Level Miami Center
12:57PM 25.6903 -77.4514 179° South 462 532 37,000  Level Miami Center
12:58PM 25.5586 -77.4531 181° South 462 532 37,000  Level Miami Center
12:59PM 25.4292 -77.4503 179° South 462 532 37,000  Level Miami Center
01:00PM 25.2994 -77.4494 180° South 462 532 37,000  Level Miami Center
01:01PM 25.1617 -77.4489 180° South 457 526 37,000  Level Miami Center
01:02PM 25.0447 -77.4483 180° South 468 539 37,000  Level Miami Center
01:03PM 24.9106 -77.5003 199° South 450 518 37,000  Level Miami Center
01:04PM 24.7975 -77.5525 203° Southwest 455 524 37,000  Level Miami Center
01:05PM 24.6886 -77.6044 203° Southwest 444 511 37,000  Level Miami Center
01:06PM 24.5797 -77.6564 203° Southwest 438 504 37,000  Level Miami Center
01:07PM 24.4728 -77.7058 203° Southwest 432 497 37,000 -60 Level Miami Center
01:08PM 24.3639 -77.7553 202° Southwest 432 497 36,900 -660 Descending Miami Center
01:09PM 24.2592 -77.8025 202° Southwest 425 489 35,700 -1,200 Descending Miami Center
01:10PM 24.1542 -77.8494 202° Southwest 415 478 34,500 -1,500 Descending Miami Center
01:11PM 24.0578 -77.9011 206° Southwest 405 466 32,700 -1,800 Descending Miami Center
01:13PM 23.8468 -77.9622 197° South  Level FlightAware Approximate
01:20PM 23.0448 -78.1717 192° South  Level FlightAware Approximate
01:21PM 22.9295 -78.1983 192° South  Level FlightAware Approximate
01:22PM 22.8142 -78.2246 192° South  Level FlightAware Approximate
01:23PM 22.6987 -78.2504 197° South  Level FlightAware Approximate
01:24PM 22.5870 -78.2893 190° South  Level FlightAware Approximate
01:25PM 22.4711 -78.3125 190° South  Level FlightAware Approximate
01:26PM 22.4500 -78.3167 190° South  Level FlightAware Approximate
01:27PM 22.4610 -78.3284 190° South  Level Estimated
01:28PM 22.4610 -78.3284 190° South  Level Estimated
01:29PM 22.4610 -78.3284 190° South  Level Estimated
01:30PM 22.4610 -78.3284 190° South  Level Estimated
01:31PM 22.4610 -78.3284 190° South  Level Estimated
01:32PM 22.4610 -78.3284 190° South  Level Estimated
01:33PM 22.4610 -78.3284 190° South  Level Estimated
01:34PM 22.4610 -78.3284 190° South  Level Estimated
01:35PM 22.4610 -78.3284 190° South  Level Estimated
01:36PM 22.4610 -78.3284 190° South  Level Estimated
01:37PM 22.4610 -78.3284 190° South  Level Estimated
01:38PM 22.4610 -78.3284 190° South  Level Estimated
01:39PM 22.4610 -78.3284 190° South  Level Estimated
01:40PM 22.4610 -78.3284 190° South  Level Estimated
01:41PM 22.4610 -78.3284 190° South  Level Estimated
01:42PM 22.4610 -78.3284 190° South  Level Estimated